Time;durP1;ratioP1;P1;durP2;ratioP2;P2;SDS_P1;SDS_P2;PMS_P1;PMS_P2;Temp;Humidity;BMP_temperature;BMP_pressure;BME280_temperature;BME280_humidity;BME280_pressure;Samples;Min_cycle;Max_cycle;Signal;HPM_P1;HPM_P2
2022/03/27 00:00:36;;;;;;;12.73;5.68;;;;;;;9.10;89.75;103435.03;5075379;28;20223;-74
2022/03/27 00:03:06;;;;;;;11.82;6.35;;;;;;;9.15;89.76;103443.19;5074866;28;20076;-74
2022/03/27 00:05:35;;;;;;;12.73;5.60;;;;;;;9.14;89.76;103446.59;5062244;28;20044;-75
2022/03/27 00:08:03;;;;;;;13.73;5.93;;;;;;;9.16;89.72;103447.59;5064567;28;20188;-75
2022/03/27 00:11:23;;;;;;;15.43;6.05;;;;;;;9.15;89.78;103440.56;5073129;28;20055;-74
2022/03/27 00:13:19;;;;;;;13.43;5.53;;;;;;;9.12;89.92;103441.28;5076175;28;20971;-74
2022/03/27 00:15:46;;;;;;;15.00;6.80;;;;;;;9.10;90.28;103442.91;5077798;28;20244;-75
2022/03/27 00:18:15;;;;;;;14.05;6.75;;;;;;;9.14;90.03;103434.41;5075082;28;20470;-74
2022/03/27 00:20:43;;;;;;;11.80;6.30;;;;;;;9.18;89.89;103432.91;5077473;28;20168;-74
2022/03/27 00:23:11;;;;;;;15.30;6.63;;;;;;;9.14;90.02;103426.56;5075686;28;20111;-75
2022/03/27 00:25:40;;;;;;;13.57;6.20;;;;;;;9.15;90.21;103427.47;5074204;28;20052;-75
2022/03/27 00:28:07;;;;;;;15.13;6.85;;;;;;;9.16;90.26;103427.56;5073408;28;20056;-75
2022/03/27 00:30:35;;;;;;;14.40;5.95;;;;;;;9.15;89.94;103420.53;5072597;28;20111;-74
2022/03/27 00:33:03;;;;;;;14.27;7.00;;;;;;;9.10;90.25;103426.28;5062551;28;20052;-75
2022/03/27 00:35:32;;;;;;;13.73;6.88;;;;;;;9.10;90.18;103424.56;5074113;28;20544;-75
2022/03/27 00:38:00;;;;;;;11.73;6.40;;;;;;;9.10;90.29;103423.66;5065649;28;20130;-75
2022/03/27 00:40:28;;;;;;;14.27;6.28;;;;;;;9.06;90.33;103419.06;5063290;28;20559;-74
2022/03/27 00:42:56;;;;;;;13.98;6.95;;;;;;;9.05;90.09;103431.25;5074138;28;20093;-75
2022/03/27 00:45:24;;;;;;;14.40;6.75;;;;;;;9.05;90.03;103432.97;5070706;28;20063;-75
2022/03/27 00:47:52;;;;;;;14.73;6.82;;;;;;;8.98;90.37;103425.53;5069111;28;20225;-75
2022/03/27 00:50:20;;;;;;;13.73;6.88;;;;;;;8.96;90.20;103440.25;5072412;28;20052;-75
2022/03/27 00:52:49;;;;;;;14.00;6.70;;;;;;;8.93;90.44;103430.50;5075818;28;20037;-75
2022/03/27 00:55:17;;;;;;;15.50;7.50;;;;;;;8.85;90.55;103437.88;5073560;28;20130;-75
2022/03/27 00:57:45;;;;;;;15.73;6.72;;;;;;;8.87;90.54;103431.84;5067792;28;20040;-75
2022/03/27 01:00:36;;;;;;;14.70;6.88;;;;;;;8.86;90.57;103433.56;5077720;28;20184;-75
2022/03/27 01:03:05;;;;;;;15.25;7.07;;;;;;;8.84;90.73;103435.16;5070529;28;20040;-75
2022/03/27 01:05:33;;;;;;;18.65;8.13;;;;;;;8.91;90.38;103433.84;5069854;28;20063;-75
2022/03/27 01:08:06;;;;;;;17.13;7.55;;;;;;;8.83;90.47;103434.25;5070602;28;20043;-75
2022/03/27 01:10:34;;;;;;;17.25;8.63;;;;;;;8.82;90.54;103435.06;5066036;28;20044;-75
2022/03/27 01:13:04;;;;;;;15.65;7.20;;;;;;;8.75;90.82;103432.88;5073433;28;20040;-75
2022/03/27 01:15:38;;;;;;;19.83;8.07;;;;;;;8.74;91.10;103430.19;5075961;28;20119;-74
2022/03/27 01:18:07;;;;;;;18.00;7.88;;;;;;;8.71;91.04;103430.91;5062307;28;20566;-75
2022/03/27 01:20:39;;;;;;;17.63;7.82;;;;;;;8.72;91.05;103427.47;5079735;28;20046;-75
2022/03/27 01:23:09;;;;;;;19.25;8.20;;;;;;;8.60;91.53;103431.03;5075327;28;20044;-75
2022/03/27 01:25:38;;;;;;;18.60;7.25;;;;;;;8.49;91.71;103426.03;5076101;28;20093;-75
2022/03/27 01:28:06;;;;;;;20.98;8.77;;;;;;;8.47;91.48;103424.13;5074227;28;20053;-74
2022/03/27 01:30:35;;;;;;;18.70;7.72;;;;;;;8.41;91.88;103421.13;5076927;28;20060;-75
2022/03/27 01:33:02;;;;;;;22.23;8.10;;;;;;;8.38;91.72;103423.53;5073558;28;20052;-75
2022/03/27 01:35:30;;;;;;;21.98;8.05;;;;;;;8.27;92.10;103424.56;5076274;28;20612;-74
2022/03/27 01:38:00;;;;;;;18.42;7.35;;;;;;;8.23;92.31;103422.56;5079961;28;20455;-75
2022/03/27 01:40:27;;;;;;;18.30;7.07;;;;;;;8.22;92.26;103418.16;5072825;28;20044;-76
2022/03/27 01:42:55;;;;;;;19.38;7.15;;;;;;;8.25;92.32;103419.25;5076218;28;20072;-75
2022/03/27 01:45:24;;;;;;;20.27;7.28;;;;;;;8.18;92.60;103417.06;5075113;28;20044;-74
2022/03/27 01:47:52;;;;;;;19.02;7.45;;;;;;;8.28;92.61;103413.31;5059872;28;20040;-75
2022/03/27 01:50:20;;;;;;;19.10;6.85;;;;;;;8.34;92.22;103412.00;5080424;28;20048;-75
2022/03/27 01:52:47;;;;;;;22.60;8.07;;;;;;;8.29;92.02;103417.72;5065287;28;20076;-75
2022/03/27 01:55:17;;;;;;;18.05;7.88;;;;;;;8.19;92.24;103414.53;5074166;28;20064;-75
2022/03/27 01:57:45;;;;;;;19.85;7.68;;;;;;;8.17;92.24;103412.63;5068758;28;20117;-74
2022/03/27 02:00:14;;;;;;;19.65;6.85;;;;;;;8.14;92.15;103415.03;5070470;28;20053;-75
2022/03/27 02:02:42;;;;;;;17.88;7.68;;;;;;;8.09;92.26;103419.06;5069512;28;20060;-75
2022/03/27 02:05:11;;;;;;;20.02;7.43;;;;;;;8.06;92.32;103408.41;5078038;28;20048;-75
2022/03/27 02:07:42;;;;;;;22.67;9.02;;;;;;;8.09;92.27;103408.63;5073795;28;20138;-75
2022/03/27 02:10:10;;;;;;;25.27;8.77;;;;;;;7.98;92.67;103412.25;5073965;28;20043;-75
2022/03/27 02:12:40;;;;;;;19.42;7.55;;;;;;;7.95;93.14;103422.50;5074572;28;20638;-75
2022/03/27 02:15:09;;;;;;;21.10;7.78;;;;;;;7.91;92.69;103420.50;5075746;28;20516;-74
2022/03/27 02:17:39;;;;;;;24.55;7.90;;;;;;;7.91;92.83;103420.50;5068795;28;20155;-75
2022/03/27 02:20:08;;;;;;;20.83;7.72;;;;;;;7.83;93.01;103422.59;5076684;28;20052;-74
2022/03/27 02:22:36;;;;;;;25.00;7.70;;;;;;;7.88;92.77;103418.59;5074136;28;20041;-75
2022/03/27 02:25:05;;;;;;;20.38;6.78;;;;;;;7.84;92.90;103419.19;5076987;28;20059;-75
2022/03/27 02:27:33;;;;;;;19.90;6.78;;;;;;;7.80;93.00;103411.97;5075171;28;20368;-75
2022/03/27 02:30:03;;;;;;;26.63;7.90;;;;;;;7.67;93.58;103412.84;5073448;28;20064;-75
2022/03/27 02:32:30;;;;;;;21.85;7.13;;;;;;;7.62;93.79;103408.13;5076145;28;20270;-75
2022/03/27 02:34:58;;;;;;;17.77;6.53;;;;;;;7.64;93.63;103410.03;5073468;28;20167;-75
2022/03/27 02:37:26;;;;;;;17.00;6.68;;;;;;;7.61;93.73;103411.56;5074374;28;20051;-75
2022/03/27 02:39:54;;;;;;;19.65;6.78;;;;;;;7.55;93.89;103405.13;5072594;28;20355;-75
2022/03/27 02:42:22;;;;;;;18.70;6.95;;;;;;;7.52;94.01;103407.53;5076013;28;20044;-76
2022/03/27 02:44:50;;;;;;;24.58;8.52;;;;;;;7.50;94.13;103409.13;5073823;28;20054;-75
2022/03/27 02:47:19;;;;;;;22.20;8.82;;;;;;;7.52;94.04;103410.13;5065674;28;20048;-75
2022/03/27 02:49:47;;;;;;;17.17;7.05;;;;;;;7.43;94.34;103406.91;5074066;28;20043;-75
2022/03/27 02:52:14;;;;;;;17.75;6.57;;;;;;;7.45;94.35;103407.00;5075174;28;20052;-75
2022/03/27 02:54:43;;;;;;;19.75;6.60;;;;;;;7.41;94.29;103407.63;5066490;28;20157;-75
2022/03/27 02:57:11;;;;;;;17.83;7.72;;;;;;;7.43;94.35;103406.00;5066902;28;20051;-75
2022/03/27 02:59:39;;;;;;;17.02;6.78;;;;;;;7.43;94.14;103404.31;5070456;28;20067;-75
2022/03/27 03:02:08;;;;;;;16.95;6.53;;;;;;;7.39;94.31;103407.50;5067660;28;20767;-75
2022/03/27 03:04:37;;;;;;;24.45;8.30;;;;;;;7.17;95.25;103404.28;5070235;28;20069;-75
2022/03/27 03:07:05;;;;;;;17.20;7.60;;;;;;;7.25;95.63;103402.19;5071882;28;20059;-75
2022/03/27 03:09:34;;;;;;;22.00;8.65;;;;;;;7.35;95.49;103402.88;5068236;28;20040;-75
2022/03/27 03:12:02;;;;;;;23.55;8.45;;;;;;;7.38;95.26;103402.19;5074439;28;20048;-75
2022/03/27 03:14:30;;;;;;;25.52;8.38;;;;;;;7.42;95.22;103399.88;5075141;28;20650;-74
2022/03/27 03:16:58;;;;;;;22.73;7.63;;;;;;;7.43;95.04;103388.63;5074170;28;20044;-74
2022/03/27 03:19:26;;;;;;;23.67;8.30;;;;;;;7.42;95.12;103393.75;5071964;28;20047;-73
2022/03/27 03:21:56;;;;;;;25.17;10.45;;;;;;;7.38;95.00;103396.97;5067913;28;20044;-75
2022/03/27 03:24:25;;;;;;;18.63;7.97;;;;;;;7.35;94.78;103395.06;5028761;28;1099440;-74
2022/03/27 03:26:53;;;;;;;23.92;8.32;;;;;;;7.31;94.90;103393.03;5059092;28;20070;-73
2022/03/27 03:29:22;;;;;;;27.17;9.73;;;;;;;7.27;95.02;103384.94;5076306;28;20060;-73
2022/03/27 03:31:50;;;;;;;25.75;9.88;;;;;;;7.29;94.96;103394.63;5073374;28;20913;-73
2022/03/27 03:34:18;;;;;;;22.25;9.40;;;;;;;7.31;94.90;103389.53;5076086;28;20648;-75
2022/03/27 03:36:46;;;;;;;28.13;10.65;;;;;;;7.19;95.15;103381.81;5074057;28;20060;-75
2022/03/27 03:39:15;;;;;;;29.75;11.05;;;;;;;7.31;95.15;103385.19;5070959;28;20048;-75
2022/03/27 03:41:43;;;;;;;29.17;10.38;;;;;;;7.29;95.47;103385.91;5072345;28;20707;-73
2022/03/27 03:44:22;;;;;;;27.52;10.18;;;;;;;7.36;95.24;103383.81;5074918;28;20052;-73
2022/03/27 03:46:50;;;;;;;25.25;9.63;;;;;;;7.32;95.14;103386.09;5075321;28;20766;-73
2022/03/27 03:49:20;;;;;;;24.67;9.30;;;;;;;7.30;94.56;103390.31;5075706;28;20052;-73
2022/03/27 03:51:48;;;;;;;23.73;10.20;;;;;;;7.14;94.82;103391.94;5072710;28;20554;-73
2022/03/27 03:54:18;;;;;;;22.35;8.68;;;;;;;7.10;94.50;103387.31;5074487;28;20053;-73
2022/03/27 03:56:45;;;;;;;24.08;9.60;;;;;;;7.12;94.53;103387.41;5064793;28;20052;-73
2022/03/27 03:59:13;;;;;;;23.00;10.23;;;;;;;7.11;94.69;103383.00;5074908;28;20561;-75
2022/03/27 04:01:58;;;;;;;25.02;9.63;;;;;;;7.11;94.84;103390.81;5075854;28;20044;-74
2022/03/27 04:04:27;;;;;;;21.30;9.75;;;;;;;7.17;94.60;103394.75;5073093;28;20054;-75
2022/03/27 04:06:54;;;;;;;21.30;8.52;;;;;;;7.20;94.61;103394.97;5074161;28;20056;-75
2022/03/27 04:09:23;;;;;;;21.67;8.38;;;;;;;7.13;94.58;103392.72;5071648;28;20055;-75
2022/03/27 04:11:52;;;;;;;25.20;9.57;;;;;;;7.12;94.71;103387.41;5073523;28;20082;-74
2022/03/27 04:14:20;;;;;;;22.88;9.90;;;;;;;7.14;94.53;103393.63;5069806;28;20113;-75
2022/03/27 04:16:49;;;;;;;24.40;9.85;;;;;;;7.14;94.69;103391.94;5074180;28;20144;-74
2022/03/27 04:19:17;;;;;;;24.60;10.75;;;;;;;7.10;94.74;103389.91;5065659;28;20075;-75
2022/03/27 04:21:44;;;;;;;23.50;9.15;;;;;;;7.14;95.05;103385.81;5071227;28;20054;-74
2022/03/27 04:24:12;;;;;;;29.65;10.48;;;;;;;7.15;94.74;103385.91;5072747;28;20135;-74
2022/03/27 04:26:41;;;;;;;27.42;11.07;;;;;;;7.18;94.90;103388.72;5063399;28;20061;-75
2022/03/27 04:29:10;;;;;;;32.53;11.70;;;;;;;7.21;94.67;103385.41;5064889;28;20062;-74
2022/03/27 04:31:40;;;;;;;28.90;11.40;;;;;;;7.20;94.51;103391.44;5073802;28;20057;-74
2022/03/27 04:34:09;;;;;;;28.73;10.73;;;;;;;7.18;94.40;103387.81;5075870;28;20051;-74
2022/03/27 04:36:37;;;;;;;27.52;10.88;;;;;;;7.15;94.62;103392.84;5072085;28;20044;-75
2022/03/27 04:39:05;;;;;;;23.02;10.02;;;;;;;7.13;94.63;103395.34;5069685;28;20108;-74
2022/03/27 04:41:33;;;;;;;25.70;10.63;;;;;;;7.14;94.19;103396.25;5068535;28;20489;-75
2022/03/27 04:44:03;;;;;;;21.80;9.30;;;;;;;7.17;94.09;103391.22;5070856;28;20044;-73
2022/03/27 04:46:31;;;;;;;23.52;10.10;;;;;;;7.14;93.81;103396.25;5068106;28;20255;-75
2022/03/27 04:48:59;;;;;;;23.08;9.35;;;;;;;7.15;93.33;103395.44;5068681;28;20063;-75
2022/03/27 04:51:27;;;;;;;24.92;11.05;;;;;;;7.15;93.14;103401.56;5073287;28;20500;-74
2022/03/27 04:53:55;;;;;;;26.90;10.38;;;;;;;7.12;93.40;103403.06;5074526;28;20094;-74
2022/03/27 04:56:23;;;;;;;25.85;10.88;;;;;;;7.09;93.24;103408.06;5071259;28;20051;-75
2022/03/27 04:58:51;;;;;;;22.30;8.95;;;;;;;7.09;92.56;103410.69;5074046;28;20097;-75
2022/03/27 05:01:20;;;;;;;21.38;9.13;;;;;;;6.98;92.49;103399.50;5075985;28;20051;-75
2022/03/27 05:03:48;;;;;;;21.33;8.98;;;;;;;7.01;92.45;103412.78;5075851;28;20117;-75
2022/03/27 05:06:16;;;;;;;17.67;7.78;;;;;;;7.04;91.98;103409.47;5076874;28;20056;-74
2022/03/27 05:08:45;;;;;;;19.58;8.15;;;;;;;6.89;91.82;103414.53;5062015;28;20057;-73
2022/03/27 05:11:13;;;;;;;22.27;9.57;;;;;;;6.89;91.90;103411.94;5064116;28;20079;-74
2022/03/27 05:13:41;;;;;;;19.95;8.52;;;;;;;6.85;91.88;103417.72;5072967;28;20056;-74
2022/03/27 05:16:09;;;;;;;20.77;9.38;;;;;;;6.80;91.82;103409.59;5070724;28;20111;-73
2022/03/27 05:18:38;;;;;;;21.02;9.20;;;;;;;6.70;91.97;103407.13;5072868;28;20048;-73
2022/03/27 05:21:06;;;;;;;22.95;9.32;;;;;;;6.75;91.93;103413.56;5070210;28;20052;-73
2022/03/27 05:23:34;;;;;;;23.58;8.38;;;;;;;6.73;91.83;103406.44;5075312;28;20127;-74
2022/03/27 05:26:02;;;;;;;17.45;8.32;;;;;;;6.73;92.29;103415.19;5073096;28;20044;-74
2022/03/27 05:28:32;;;;;;;22.83;8.68;;;;;;;6.70;91.94;103411.44;5070260;28;20149;-74
2022/03/27 05:31:01;;;;;;;23.60;8.63;;;;;;;6.67;92.05;103412.13;5068857;28;20043;-75
2022/03/27 05:33:29;;;;;;;21.92;8.88;;;;;;;6.66;91.99;103412.94;5070645;28;20052;-74
2022/03/27 05:35:58;;;;;;;16.67;8.02;;;;;;;6.70;91.69;103414.97;5068219;28;20044;-74
2022/03/27 05:38:26;;;;;;;24.75;9.25;;;;;;;6.66;92.02;103410.31;5067721;28;20519;-73
2022/03/27 05:40:53;;;;;;;23.17;9.05;;;;;;;6.60;91.94;103414.22;5074838;28;20040;-75
2022/03/27 05:43:21;;;;;;;25.45;8.35;;;;;;;6.57;91.81;103410.59;5072179;28;20064;-73
2022/03/27 05:45:50;;;;;;;21.52;8.10;;;;;;;6.63;92.11;103409.22;5073428;28;20052;-73
2022/03/27 05:48:18;;;;;;;21.65;8.48;;;;;;;6.55;92.08;103419.09;5071682;28;20138;-73
2022/03/27 05:50:46;;;;;;;20.02;8.15;;;;;;;6.55;91.62;103416.50;5072159;28;20571;-74
2022/03/27 05:53:15;;;;;;;20.50;9.38;;;;;;;6.53;91.95;103416.38;5070188;28;20081;-73
2022/03/27 05:55:43;;;;;;;26.52;10.05;;;;;;;6.55;92.01;103413.88;5064290;28;20127;-73
2022/03/27 05:58:11;;;;;;;22.83;9.35;;;;;;;6.47;92.03;103410.72;5066132;28;20052;-73
2022/03/27 06:00:40;;;;;;;20.67;8.45;;;;;;;6.46;92.17;103410.63;5070280;28;20040;-73
2022/03/27 06:03:08;;;;;;;18.25;7.70;;;;;;;6.55;91.71;103412.19;5071628;28;20044;-73
2022/03/27 06:05:36;;;;;;;23.73;8.13;;;;;;;6.56;91.99;103424.41;5065719;28;20044;-73
2022/03/27 06:08:05;;;;;;;20.63;8.20;;;;;;;6.59;92.00;103413.31;5081590;28;20059;-73
2022/03/27 06:10:35;;;;;;;22.00;9.93;;;;;;;6.60;92.01;103424.63;5076310;28;20471;-74
2022/03/27 06:13:04;;;;;;;26.80;8.85;;;;;;;6.59;92.05;103425.44;5067345;28;20120;-74
2022/03/27 06:15:33;;;;;;;21.30;8.35;;;;;;;6.62;91.94;103425.66;5076158;28;20126;-74
2022/03/27 06:18:01;;;;;;;18.10;8.48;;;;;;;6.63;91.64;103430.06;5069790;28;20131;-74
2022/03/27 06:20:31;;;;;;;19.73;8.75;;;;;;;6.63;91.78;103430.97;5077720;28;20044;-75
2022/03/27 06:22:59;;;;;;;18.25;7.38;;;;;;;6.68;91.63;103427.00;5078404;28;20052;-74
2022/03/27 06:25:28;;;;;;;20.73;9.02;;;;;;;6.67;91.55;103432.09;5075314;28;20179;-74
2022/03/27 06:27:58;;;;;;;21.58;8.45;;;;;;;6.71;91.10;103431.50;5076766;28;20351;-74
2022/03/27 06:30:28;;;;;;;22.33;7.95;;;;;;;6.60;90.59;103441.19;5076406;28;20519;-73
2022/03/27 06:32:59;;;;;;;21.35;8.60;;;;;;;6.63;90.49;103443.09;5075536;28;20090;-74
2022/03/27 06:35:28;;;;;;;17.17;7.80;;;;;;;6.63;90.27;103437.88;5076053;28;20143;-74
2022/03/27 06:37:56;;;;;;;20.35;9.63;;;;;;;6.68;90.24;103440.03;5074491;28;20627;-73
2022/03/27 06:40:24;;;;;;;16.73;7.55;;;;;;;6.77;90.12;103439.78;5075234;28;20243;-73
2022/03/27 06:42:52;;;;;;;24.45;9.70;;;;;;;6.75;89.82;103437.06;5069433;28;20057;-72
2022/03/27 06:45:22;;;;;;;20.92;9.85;;;;;;;6.70;90.18;103441.03;5070635;28;20143;-73
2022/03/27 06:47:51;;;;;;;24.67;10.50;;;;;;;6.79;90.37;103444.28;5074598;28;20043;-73
2022/03/27 06:50:21;;;;;;;26.38;10.48;;;;;;;6.91;90.42;103436.41;5076146;28;20060;-73
2022/03/27 06:52:50;;;;;;;26.25;9.45;;;;;;;6.99;89.84;103439.56;5075962;28;20052;-72
2022/03/27 06:55:18;;;;;;;26.73;10.98;;;;;;;7.03;89.60;103436.38;5069708;28;20071;-73
2022/03/27 06:57:46;;;;;;;32.78;11.80;;;;;;;7.06;89.22;103433.97;5076049;28;20063;-72
2022/03/27 07:03:03;;;;;;;28.35;10.80;;;;;;;7.19;88.60;103426.19;5072259;28;20048;-72
2022/03/27 07:05:31;;;;;;;24.98;9.95;;;;;;;7.20;87.87;103428.88;5071238;28;20112;-73
2022/03/27 07:08:04;;;;;;;26.20;9.73;;;;;;;7.10;87.60;103431.66;5075423;28;20066;-73
2022/03/27 07:10:32;;;;;;;28.45;9.80;;;;;;;7.12;87.75;103426.56;5072373;28;20059;-73
2022/03/27 07:13:00;;;;;;;21.48;8.60;;;;;;;7.00;86.68;103431.84;5075164;28;20044;-73
2022/03/27 07:15:28;;;;;;;17.92;8.20;;;;;;;6.92;86.83;103434.72;5067831;28;20081;-73
2022/03/27 07:17:56;;;;;;;26.77;10.25;;;;;;;6.96;87.28;103441.97;5074486;28;20175;-74
2022/03/27 07:20:28;;;;;;;24.83;9.63;;;;;;;7.07;86.63;103435.78;5074090;28;20147;-74
2022/03/27 07:22:57;;;;;;;22.00;8.98;;;;;;;7.51;86.33;103434.44;5073034;28;20453;-76
2022/03/27 07:25:28;;;;;;;24.50;9.25;;;;;;;7.88;85.35;103431.66;5070574;28;20143;-74
2022/03/27 07:27:56;;;;;;;23.95;8.88;;;;;;;7.82;84.08;103428.63;5079532;28;20047;-74
2022/03/27 07:30:24;;;;;;;23.98;9.60;;;;;;;7.67;84.22;103431.16;5074874;28;20036;-74
2022/03/27 07:32:53;;;;;;;21.15;7.88;;;;;;;7.67;84.37;103428.53;5074646;28;20097;-74
2022/03/27 07:35:21;;;;;;;24.45;9.32;;;;;;;7.81;83.90;103417.28;5073974;28;20139;-73
2022/03/27 07:37:51;;;;;;;27.23;10.05;;;;;;;8.09;83.00;103419.97;5074740;28;20051;-73
2022/03/27 07:40:20;;;;;;;19.55;7.25;;;;;;;8.07;81.54;103416.34;5078131;28;20464;-74
2022/03/27 07:42:50;;;;;;;21.95;8.02;;;;;;;8.11;80.45;103415.75;5076108;28;20526;-74
2022/03/27 07:45:19;;;;;;;25.63;9.40;;;;;;;8.37;80.14;103419.13;5075964;28;20084;-74
2022/03/27 07:47:48;;;;;;;23.13;9.65;;;;;;;8.74;79.41;103414.47;5075887;28;20170;-74
2022/03/27 07:50:17;;;;;;;18.42;8.18;;;;;;;8.91;78.57;103419.03;5073964;28;20052;-75
2022/03/27 07:52:46;;;;;;;21.17;8.52;;;;;;;8.86;78.15;103415.22;5077390;28;20157;-74
2022/03/27 07:55:16;;;;;;;17.05;7.47;;;;;;;9.25;77.41;103406.25;5074035;28;20062;-75
2022/03/27 07:57:45;;;;;;;17.90;7.70;;;;;;;9.46;75.69;103414.44;5075306;28;20037;-74
2022/03/27 08:00:15;;;;;;;21.60;8.27;;;;;;;9.71;74.95;103419.41;5073716;28;20222;-73
2022/03/27 08:02:44;;;;;;;20.00;7.78;;;;;;;9.69;73.24;103421.03;5074332;28;20594;-73
2022/03/27 08:05:13;;;;;;;21.02;7.80;;;;;;;9.77;72.39;103417.13;5075352;28;20044;-73
2022/03/27 08:07:42;;;;;;;16.52;6.85;;;;;;;9.87;70.13;103424.72;5071416;28;20056;-74
2022/03/27 08:10:11;;;;;;;17.27;6.35;;;;;;;9.79;66.18;103418.13;5077436;28;20082;-73
2022/03/27 08:12:40;;;;;;;18.30;6.28;;;;;;;9.99;65.55;103417.53;5072493;28;20055;-75
2022/03/27 08:15:09;;;;;;;18.13;6.40;;;;;;;10.18;65.22;103426.44;5077236;28;20113;-75
2022/03/27 08:17:37;;;;;;;16.35;5.75;;;;;;;10.33;64.29;103428.25;5074234;28;20051;-74
2022/03/27 08:20:07;;;;;;;14.45;5.75;;;;;;;10.33;62.88;103420.38;5068796;28;20164;-75
2022/03/27 08:22:35;;;;;;;13.30;5.68;;;;;;;10.42;60.11;103425.19;5065090;28;20577;-76
2022/03/27 08:25:03;;;;;;;14.43;5.60;;;;;;;10.65;60.14;103418.56;5073689;28;20046;-75
2022/03/27 08:27:31;;;;;;;13.82;5.45;;;;;;;10.57;59.02;103415.53;5067601;28;20135;-74
2022/03/27 08:30:01;;;;;;;13.25;5.28;;;;;;;10.94;59.96;103418.41;5066511;28;20089;-75
2022/03/27 08:32:29;;;;;;;12.40;4.68;;;;;;;10.91;56.77;103414.72;5071363;28;20078;-74
2022/03/27 08:34:57;;;;;;;15.25;5.50;;;;;;;11.14;56.46;103407.22;5078134;28;20033;-75
2022/03/27 08:37:24;;;;;;;13.38;6.05;;;;;;;11.08;56.12;103412.16;5070919;28;20538;-74
2022/03/27 08:39:54;;;;;;;12.32;5.05;;;;;;;11.33;54.31;103419.56;5072514;28;20074;-74
2022/03/27 08:42:21;;;;;;;10.45;4.70;;;;;;;11.13;50.72;103418.53;5071868;28;20140;-74
2022/03/27 08:44:49;;;;;;;10.38;3.85;;;;;;;11.41;51.35;103423.50;5075666;28;20043;-74
2022/03/27 08:47:22;;;;;;;11.90;4.53;;;;;;;11.36;50.02;103417.09;5073140;28;20090;-74
2022/03/27 08:49:59;;;;;;;10.60;4.20;;;;;;;11.29;49.83;103407.09;5073433;28;20516;-75
2022/03/27 08:52:50;;;;;;;11.90;4.80;;;;;;;11.39;51.78;103409.38;5066557;28;20134;-75
2022/03/27 08:55:20;;;;;;;13.85;5.47;;;;;;;11.40;52.85;103405.91;5077139;28;20117;-75
2022/03/27 08:57:55;;;;;;;11.43;5.38;;;;;;;11.45;52.11;103409.66;5074061;28;20063;-74
2022/03/27 09:00:26;;;;;;;12.98;5.80;;;;;;;11.54;53.18;103400.41;5073461;28;20215;-74
2022/03/27 09:02:58;;;;;;;16.13;5.07;;;;;;;11.79;52.71;103406.09;5063734;28;20058;-75
2022/03/27 09:05:27;;;;;;;12.60;6.13;;;;;;;11.68;53.16;103399.38;5071952;28;20052;-75
2022/03/27 09:07:56;;;;;;;15.85;5.40;;;;;;;11.86;51.86;103404.66;5075970;28;20127;-74
2022/03/27 09:10:29;;;;;;;14.23;5.03;;;;;;;11.98;52.06;103395.66;5076016;28;20063;-76
2022/03/27 09:12:57;;;;;;;12.07;5.65;;;;;;;12.05;51.99;103399.47;5073228;28;20060;-74
2022/03/27 09:15:25;;;;;;;13.43;4.95;;;;;;;11.88;52.05;103406.56;5075267;28;20080;-75
2022/03/27 09:18:06;;;;;;;12.50;5.28;;;;;;;12.17;51.63;103404.41;5075674;28;20124;-75
2022/03/27 09:20:38;;;;;;;13.98;4.90;;;;;;;12.16;50.61;103400.00;5076035;28;20048;-75
2022/03/27 09:23:19;;;;;;;14.27;6.05;;;;;;;12.25;49.90;103400.41;5072090;28;20471;-75
2022/03/27 09:25:53;;;;;;;12.35;6.03;;;;;;;12.59;50.40;103393.22;5075960;28;20059;-74
2022/03/27 09:28:27;;;;;;;12.75;4.88;;;;;;;12.61;49.24;103399.47;5073534;28;20167;-74
2022/03/27 09:30:56;;;;;;;10.95;4.70;;;;;;;12.79;49.53;103388.84;5072476;28;20535;-74
2022/03/27 09:33:33;;;;;;;11.93;5.47;;;;;;;12.70;49.33;103394.63;5076142;28;20363;-75
2022/03/27 09:36:10;;;;;;;13.48;4.95;;;;;;;12.89;49.15;103390.16;5074117;28;20086;-75
2022/03/27 09:38:39;;;;;;;10.38;4.53;;;;;;;12.97;48.62;103392.31;5074590;28;20115;-73
2022/03/27 09:41:28;;;;;;;11.48;4.68;;;;;;;13.11;48.85;103398.19;5069907;28;20526;-75
2022/03/27 09:44:00;;;;;;;9.45;4.57;;;;;;;13.16;48.16;103398.38;5077126;28;20135;-75
2022/03/27 09:46:28;;;;;;;9.95;4.82;;;;;;;13.18;48.13;103402.91;5078719;28;20056;-74
2022/03/27 09:48:58;;;;;;;12.00;5.65;;;;;;;13.11;48.52;103398.19;5074954;28;20058;-76
2022/03/27 09:51:25;;;;;;;11.20;4.70;;;;;;;13.22;48.03;103396.94;5070448;28;20062;-73
2022/03/27 09:53:58;;;;;;;12.15;5.05;;;;;;;13.31;47.48;103392.06;5074572;28;20055;-74
2022/03/27 09:56:30;;;;;;;11.40;4.80;;;;;;;13.67;48.73;103392.69;5074837;28;20111;-74
2022/03/27 09:58:58;;;;;;;12.07;5.05;;;;;;;13.78;47.04;103390.47;5077306;28;20147;-74
2022/03/27 10:01:26;;;;;;;12.13;4.72;;;;;;;13.74;47.32;103391.19;5073269;28;20044;-75
2022/03/27 10:04:01;;;;;;;11.25;4.80;;;;;;;13.89;47.18;103389.16;5074747;28;20091;-73
2022/03/27 10:06:32;;;;;;;14.45;5.97;;;;;;;14.06;47.21;103393.38;5076675;28;20052;-73
2022/03/27 10:09:01;;;;;;;12.15;6.00;;;;;;;14.16;46.73;103384.09;5075699;28;20109;-75
2022/03/27 10:11:30;;;;;;;11.55;5.75;;;;;;;13.89;46.88;103383.91;5076104;28;20083;-74
2022/03/27 10:13:59;;;;;;;11.27;5.10;;;;;;;14.24;46.85;103379.09;5081201;28;20090;-74
2022/03/27 10:16:30;;;;;;;12.00;4.32;;;;;;;14.18;45.37;103371.84;5075205;28;20064;-74
2022/03/27 10:19:04;;;;;;;11.73;4.43;;;;;;;13.94;45.22;103376.16;5078002;28;20176;-74
2022/03/27 10:21:33;;;;;;;12.82;5.43;;;;;;;14.43;45.89;103373.72;5080431;28;20059;-74
2022/03/27 10:24:09;;;;;;;10.98;4.90;;;;;;;14.50;45.88;103370.47;5080353;28;20055;-76
2022/03/27 10:26:38;;;;;;;10.98;5.32;;;;;;;14.52;44.71;103367.88;5075900;28;20040;-75
2022/03/27 10:29:08;;;;;;;11.35;4.78;;;;;;;14.44;44.61;103364.97;5075679;28;20171;-73
2022/03/27 10:31:37;;;;;;;10.65;5.05;;;;;;;14.67;44.68;103358.75;5077364;28;20044;-72
2022/03/27 10:34:10;;;;;;;12.75;4.85;;;;;;;14.40;43.87;103374.47;5078390;28;20191;-73
2022/03/27 10:36:47;;;;;;;12.93;5.13;;;;;;;14.46;44.07;103372.94;5072576;28;20051;-73
2022/03/27 10:39:24;;;;;;;10.77;4.25;;;;;;;14.68;43.34;103355.25;5070546;28;20048;-73
2022/03/27 10:42:02;;;;;;;11.48;5.00;;;;;;;14.79;43.63;103365.31;5073256;28;20063;-75
2022/03/27 10:44:37;;;;;;;9.30;3.97;;;;;;;15.23;42.76;103362.50;5065687;28;20064;-74
2022/03/27 10:47:13;;;;;;;12.45;5.13;;;;;;;15.05;42.53;103361.88;5074905;28;20048;-75
2022/03/27 10:49:43;;;;;;;10.73;4.68;;;;;;;15.45;43.10;103352.66;5066688;28;20435;-76
2022/03/27 10:52:11;;;;;;;12.07;5.22;;;;;;;15.29;43.11;103361.81;5076647;28;20074;-77
2022/03/27 10:54:59;;;;;;;9.02;4.38;;;;;;;15.25;41.80;103349.31;5070691;28;20420;-76
2022/03/27 10:57:32;;;;;;;11.25;4.47;;;;;;;15.36;40.58;103351.50;5069302;28;20049;-74
2022/03/27 11:00:00;;;;;;;8.80;4.30;;;;;;;15.24;40.36;103345.78;5078318;28;20431;-74
2022/03/27 11:02:45;;;;;;;11.63;5.40;;;;;;;15.17;40.98;103341.13;5080478;28;20083;-74
2022/03/27 11:06:00;;;;;;;13.00;4.50;;;;;;;15.26;40.79;103343.19;5077285;28;20051;-74
2022/03/27 11:08:47;;;;;;;10.88;4.82;;;;;;;14.96;40.46;103346.59;5043455;28;20043;-74
2022/03/27 11:12:01;;;;;;;10.93;5.15;;;;;;;15.14;40.86;103335.75;5070062;28;20329;-73
2022/03/27 11:14:57;;;;;;;10.45;5.43;;;;;;;15.21;40.28;103336.84;5068439;28;20051;-73
2022/03/27 11:17:46;;;;;;;8.90;4.13;;;;;;;15.76;40.33;103334.28;5073492;28;20051;-72
2022/03/27 11:20:54;;;;;;;9.20;4.50;;;;;;;15.72;38.99;103332.38;5072375;28;20113;-74
2022/03/27 11:23:32;;;;;;;9.07;4.45;;;;;;;15.48;38.36;103327.19;5070793;28;20172;-73
2022/03/27 11:26:02;;;;;;;13.27;5.07;;;;;;;15.67;38.21;103328.69;5075593;28;20044;-73
2022/03/27 11:28:48;;;;;;;10.65;4.32;;;;;;;16.07;37.03;103321.97;5067061;28;20043;-73
2022/03/27 11:31:19;;;;;;;9.15;3.35;;;;;;;16.19;35.38;103317.06;5074631;28;20258;-73
2022/03/27 11:34:20;;;;;;;8.85;3.60;;;;;;;16.25;34.66;103318.13;5075089;28;20522;-73
2022/03/27 11:37:04;;;;;;;9.27;3.42;;;;;;;16.72;34.67;103313.28;5031777;28;20044;-73
2022/03/27 11:39:35;;;;;;;8.48;3.10;;;;;;;16.55;33.60;103309.25;5071762;28;20052;-73